sensor_id;sensor_type;location;lat;lon;timestamp;P1;durP1;ratioP1;P2;durP2;ratioP2
52210;SDS011;38179;52.756;6.906;2024-03-23T00:53:54;35.28;;;13.50;;
52210;SDS011;38179;52.756;6.906;2024-03-23T00:56:20;37.50;;;13.40;;
52210;SDS011;38179;52.756;6.906;2024-03-23T00:58:45;34.80;;;13.65;;
52210;SDS011;38179;52.756;6.906;2024-03-23T01:01:11;44.55;;;14.43;;
52210;SDS011;38179;52.756;6.906;2024-03-23T01:03:37;40.10;;;14.25;;
52210;SDS011;38179;52.756;6.906;2024-03-23T01:06:02;37.42;;;14.20;;
52210;SDS011;38179;52.756;6.906;2024-03-23T01:08:31;44.47;;;14.63;;
52210;SDS011;38179;52.756;6.906;2024-03-23T01:11:00;33.60;;;12.65;;
52210;SDS011;38179;52.756;6.906;2024-03-23T01:13:27;32.47;;;13.23;;
52210;SDS011;38179;52.756;6.906;2024-03-23T01:15:54;34.53;;;12.77;;
52210;SDS011;38179;52.756;6.906;2024-03-23T01:18:21;36.95;;;13.38;;
52210;SDS011;38179;52.756;6.906;2024-03-23T01:20:47;40.45;;;12.65;;
52210;SDS011;38179;52.756;6.906;2024-03-23T01:23:14;29.88;;;12.38;;
52210;SDS011;38179;52.756;6.906;2024-03-23T01:25:40;26.30;;;11.95;;
52210;SDS011;38179;52.756;6.906;2024-03-23T01:28:06;30.80;;;12.75;;
52210;SDS011;38179;52.756;6.906;2024-03-23T01:30:35;32.97;;;13.18;;
52210;SDS011;38179;52.756;6.906;2024-03-23T01:33:01;39.53;;;13.30;;
52210;SDS011;38179;52.756;6.906;2024-03-23T01:35:30;29.33;;;12.77;;
52210;SDS011;38179;52.756;6.906;2024-03-23T01:37:56;31.33;;;12.52;;
52210;SDS011;38179;52.756;6.906;2024-03-23T01:40:21;34.97;;;12.70;;
52210;SDS011;38179;52.756;6.906;2024-03-23T01:42:57;43.65;;;13.57;;
52210;SDS011;38179;52.756;6.906;2024-03-23T01:45:23;31.08;;;12.60;;
52210;SDS011;38179;52.756;6.906;2024-03-23T01:47:52;32.97;;;13.05;;
52210;SDS011;38179;52.756;6.906;2024-03-23T01:50:19;34.33;;;13.68;;
52210;SDS011;38179;52.756;6.906;2024-03-23T01:52:46;26.25;;;11.93;;
52210;SDS011;38179;52.756;6.906;2024-03-23T01:55:13;30.50;;;12.65;;
52210;SDS011;38179;52.756;6.906;2024-03-23T01:57:38;28.70;;;12.82;;
52210;SDS011;38179;52.756;6.906;2024-03-23T02:00:04;29.98;;;14.65;;
52210;SDS011;38179;52.756;6.906;2024-03-23T02:02:31;31.75;;;13.02;;
52210;SDS011;38179;52.756;6.906;2024-03-23T02:04:57;32.03;;;13.18;;
52210;SDS011;38179;52.756;6.906;2024-03-23T02:07:22;32.45;;;12.50;;
52210;SDS011;38179;52.756;6.906;2024-03-23T02:09:50;38.55;;;12.65;;
52210;SDS011;38179;52.756;6.906;2024-03-23T02:12:17;32.05;;;12.10;;
52210;SDS011;38179;52.756;6.906;2024-03-23T02:14:43;28.33;;;12.43;;
52210;SDS011;38179;52.756;6.906;2024-03-23T02:17:09;24.77;;;12.85;;
52210;SDS011;38179;52.756;6.906;2024-03-23T02:19:34;35.10;;;12.85;;
52210;SDS011;38179;52.756;6.906;2024-03-23T02:22:00;34.75;;;13.10;;
52210;SDS011;38179;52.756;6.906;2024-03-23T02:24:26;30.50;;;11.90;;
52210;SDS011;38179;52.756;6.906;2024-03-23T02:26:51;36.97;;;12.80;;
52210;SDS011;38179;52.756;6.906;2024-03-23T02:29:17;31.17;;;12.55;;
52210;SDS011;38179;52.756;6.906;2024-03-23T02:31:44;27.92;;;12.93;;
52210;SDS011;38179;52.756;6.906;2024-03-23T02:34:10;30.05;;;12.80;;
52210;SDS011;38179;52.756;6.906;2024-03-23T02:36:36;29.80;;;12.88;;
52210;SDS011;38179;52.756;6.906;2024-03-23T02:39:01;28.85;;;12.57;;
52210;SDS011;38179;52.756;6.906;2024-03-23T04:33:31;25.92;;;12.30;;
52210;SDS011;38179;52.756;6.906;2024-03-23T04:35:56;30.15;;;12.05;;
52210;SDS011;38179;52.756;6.906;2024-03-23T04:38:22;34.63;;;13.07;;
52210;SDS011;38179;52.756;6.906;2024-03-23T04:40:57;31.17;;;12.40;;
52210;SDS011;38179;52.756;6.906;2024-03-23T04:43:24;30.02;;;13.05;;
52210;SDS011;38179;52.756;6.906;2024-03-23T04:45:50;28.48;;;11.93;;
52210;SDS011;38179;52.756;6.906;2024-03-23T04:48:16;26.85;;;12.48;;
52210;SDS011;38179;52.756;6.906;2024-03-23T04:50:43;26.80;;;11.40;;
52210;SDS011;38179;52.756;6.906;2024-03-23T04:53:10;26.75;;;12.43;;
52210;SDS011;38179;52.756;6.906;2024-03-23T04:55:35;24.42;;;11.93;;
52210;SDS011;38179;52.756;6.906;2024-03-23T04:58:02;33.20;;;11.85;;
52210;SDS011;38179;52.756;6.906;2024-03-23T05:00:28;32.70;;;12.68;;
52210;SDS011;38179;52.756;6.906;2024-03-23T05:02:53;36.90;;;13.02;;
52210;SDS011;38179;52.756;6.906;2024-03-23T05:05:19;30.90;;;12.40;;
52210;SDS011;38179;52.756;6.906;2024-03-23T05:07:45;25.77;;;11.70;;
52210;SDS011;38179;52.756;6.906;2024-03-23T05:10:10;25.08;;;11.43;;
52210;SDS011;38179;52.756;6.906;2024-03-23T05:12:38;24.55;;;11.60;;
52210;SDS011;38179;52.756;6.906;2024-03-23T05:15:05;27.48;;;11.52;;
52210;SDS011;38179;52.756;6.906;2024-03-23T05:17:31;26.58;;;12.27;;
52210;SDS011;38179;52.756;6.906;2024-03-23T05:19:58;28.08;;;11.90;;
52210;SDS011;38179;52.756;6.906;2024-03-23T05:22:23;25.65;;;11.48;;
52210;SDS011;38179;52.756;6.906;2024-03-23T05:24:49;26.75;;;11.90;;
52210;SDS011;38179;52.756;6.906;2024-03-23T05:27:15;24.05;;;12.13;;
52210;SDS011;38179;52.756;6.906;2024-03-23T05:29:40;28.63;;;12.05;;
52210;SDS011;38179;52.756;6.906;2024-03-23T05:32:06;31.20;;;10.88;;
52210;SDS011;38179;52.756;6.906;2024-03-23T05:34:32;25.67;;;11.00;;
52210;SDS011;38179;52.756;6.906;2024-03-23T05:36:58;27.88;;;12.07;;
52210;SDS011;38179;52.756;6.906;2024-03-23T05:39:24;24.65;;;11.27;;
52210;SDS011;38179;52.756;6.906;2024-03-23T05:41:50;27.58;;;11.93;;
52210;SDS011;38179;52.756;6.906;2024-03-23T05:44:16;26.52;;;11.23;;
52210;SDS011;38179;52.756;6.906;2024-03-23T05:46:42;29.50;;;12.70;;
52210;SDS011;38179;52.756;6.906;2024-03-23T05:49:13;28.15;;;12.10;;
52210;SDS011;38179;52.756;6.906;2024-03-23T05:51:42;28.15;;;11.90;;
52210;SDS011;38179;52.756;6.906;2024-03-23T05:54:07;24.50;;;11.50;;
52210;SDS011;38179;52.756;6.906;2024-03-23T05:56:33;30.73;;;11.48;;
52210;SDS011;38179;52.756;6.906;2024-03-23T05:58:59;23.63;;;10.82;;
52210;SDS011;38179;52.756;6.906;2024-03-23T06:01:24;19.63;;;10.73;;
52210;SDS011;38179;52.756;6.906;2024-03-23T06:03:56;25.77;;;11.32;;
52210;SDS011;38179;52.756;6.906;2024-03-23T06:06:22;29.60;;;11.48;;
52210;SDS011;38179;52.756;6.906;2024-03-23T06:08:48;28.02;;;11.30;;
52210;SDS011;38179;52.756;6.906;2024-03-23T06:11:13;25.10;;;11.43;;
52210;SDS011;38179;52.756;6.906;2024-03-23T06:13:39;24.98;;;10.80;;
52210;SDS011;38179;52.756;6.906;2024-03-23T06:16:05;21.67;;;10.93;;
52210;SDS011;38179;52.756;6.906;2024-03-23T06:18:33;29.30;;;11.45;;
52210;SDS011;38179;52.756;6.906;2024-03-23T06:20:58;21.65;;;11.10;;
52210;SDS011;38179;52.756;6.906;2024-03-23T06:23:24;21.92;;;10.98;;
52210;SDS011;38179;52.756;6.906;2024-03-23T06:25:50;24.40;;;10.65;;
52210;SDS011;38179;52.756;6.906;2024-03-23T06:28:15;25.17;;;10.18;;
52210;SDS011;38179;52.756;6.906;2024-03-23T06:30:41;30.02;;;11.05;;
52210;SDS011;38179;52.756;6.906;2024-03-23T06:33:07;25.02;;;9.95;;
52210;SDS011;38179;52.756;6.906;2024-03-23T06:35:32;27.70;;;10.98;;
52210;SDS011;38179;52.756;6.906;2024-03-23T06:37:58;22.77;;;11.32;;
52210;SDS011;38179;52.756;6.906;2024-03-23T06:40:24;29.85;;;10.75;;
52210;SDS011;38179;52.756;6.906;2024-03-23T06:42:49;21.42;;;10.75;;
52210;SDS011;38179;52.756;6.906;2024-03-23T06:45:16;24.60;;;10.68;;
52210;SDS011;38179;52.756;6.906;2024-03-23T06:47:42;25.63;;;11.32;;
52210;SDS011;38179;52.756;6.906;2024-03-23T06:50:09;21.10;;;10.25;;
52210;SDS011;38179;52.756;6.906;2024-03-23T06:52:35;15.52;;;8.65;;
52210;SDS011;38179;52.756;6.906;2024-03-23T06:55:01;14.52;;;8.73;;
52210;SDS011;38179;52.756;6.906;2024-03-23T06:57:29;14.40;;;8.73;;
52210;SDS011;38179;52.756;6.906;2024-03-23T06:59:55;18.10;;;9.63;;
52210;SDS011;38179;52.756;6.906;2024-03-23T07:02:20;14.75;;;8.07;;
52210;SDS011;38179;52.756;6.906;2024-03-23T07:04:46;19.48;;;8.63;;
52210;SDS011;38179;52.756;6.906;2024-03-23T07:07:12;17.35;;;8.93;;
52210;SDS011;38179;52.756;6.906;2024-03-23T07:09:37;16.35;;;8.73;;
52210;SDS011;38179;52.756;6.906;2024-03-23T07:12:03;16.40;;;8.10;;
52210;SDS011;38179;52.756;6.906;2024-03-23T07:14:29;14.65;;;8.05;;
52210;SDS011;38179;52.756;6.906;2024-03-23T07:16:55;13.32;;;8.32;;
52210;SDS011;38179;52.756;6.906;2024-03-23T07:19:21;13.88;;;8.70;;
52210;SDS011;38179;52.756;6.906;2024-03-23T07:21:47;16.88;;;9.10;;
52210;SDS011;38179;52.756;6.906;2024-03-23T07:24:18;15.75;;;8.00;;
52210;SDS011;38179;52.756;6.906;2024-03-23T07:26:44;12.38;;;8.13;;
52210;SDS011;38179;52.756;6.906;2024-03-23T07:29:10;11.68;;;7.88;;
52210;SDS011;38179;52.756;6.906;2024-03-23T07:31:35;9.50;;;7.55;;
52210;SDS011;38179;52.756;6.906;2024-03-23T07:34:01;11.52;;;7.95;;
52210;SDS011;38179;52.756;6.906;2024-03-23T07:36:27;17.02;;;8.23;;
52210;SDS011;38179;52.756;6.906;2024-03-23T07:38:52;13.15;;;8.52;;
52210;SDS011;38179;52.756;6.906;2024-03-23T07:41:19;14.27;;;8.48;;
52210;SDS011;38179;52.756;6.906;2024-03-23T07:43:45;13.27;;;8.32;;
52210;SDS011;38179;52.756;6.906;2024-03-23T07:46:12;15.10;;;8.60;;
52210;SDS011;38179;52.756;6.906;2024-03-23T07:48:38;12.10;;;7.72;;
52210;SDS011;38179;52.756;6.906;2024-03-23T07:51:06;16.70;;;8.57;;
52210;SDS011;38179;52.756;6.906;2024-03-23T07:53:33;18.27;;;8.70;;
52210;SDS011;38179;52.756;6.906;2024-03-23T07:56:00;18.63;;;9.45;;
52210;SDS011;38179;52.756;6.906;2024-03-23T07:58:27;23.27;;;10.23;;
52210;SDS011;38179;52.756;6.906;2024-03-23T08:00:54;24.73;;;10.25;;
52210;SDS011;38179;52.756;6.906;2024-03-23T08:03:23;19.88;;;10.02;;
52210;SDS011;38179;52.756;6.906;2024-03-23T08:05:48;25.58;;;10.38;;
52210;SDS011;38179;52.756;6.906;2024-03-23T08:08:14;22.00;;;10.98;;
52210;SDS011;38179;52.756;6.906;2024-03-23T08:10:52;26.92;;;11.55;;
52210;SDS011;38179;52.756;6.906;2024-03-23T08:13:18;27.45;;;11.55;;
52210;SDS011;38179;52.756;6.906;2024-03-23T08:18:13;13.10;;;8.10;;
52210;SDS011;38179;52.756;6.906;2024-03-23T08:20:40;13.48;;;8.18;;
52210;SDS011;38179;52.756;6.906;2024-03-23T08:23:06;13.02;;;7.68;;
52210;SDS011;38179;52.756;6.906;2024-03-23T08:25:32;16.98;;;7.88;;
52210;SDS011;38179;52.756;6.906;2024-03-23T08:27:58;11.50;;;7.72;;
52210;SDS011;38179;52.756;6.906;2024-03-23T08:30:24;15.90;;;8.40;;
52210;SDS011;38179;52.756;6.906;2024-03-23T08:32:50;15.73;;;7.90;;
52210;SDS011;38179;52.756;6.906;2024-03-23T08:35:16;10.60;;;7.78;;
52210;SDS011;38179;52.756;6.906;2024-03-23T08:37:42;14.55;;;8.10;;
52210;SDS011;38179;52.756;6.906;2024-03-23T08:40:09;13.95;;;8.18;;
52210;SDS011;38179;52.756;6.906;2024-03-23T08:42:35;11.27;;;7.70;;
52210;SDS011;38179;52.756;6.906;2024-03-23T08:45:01;14.82;;;7.35;;
52210;SDS011;38179;52.756;6.906;2024-03-23T08:47:27;14.27;;;8.02;;
52210;SDS011;38179;52.756;6.906;2024-03-23T08:49:53;12.52;;;7.90;;
52210;SDS011;38179;52.756;6.906;2024-03-23T08:52:19;12.20;;;7.50;;
52210;SDS011;38179;52.756;6.906;2024-03-23T08:54:53;16.65;;;7.80;;
52210;SDS011;38179;52.756;6.906;2024-03-23T08:57:21;11.75;;;7.15;;
52210;SDS011;38179;52.756;6.906;2024-03-23T08:59:47;11.43;;;7.55;;
52210;SDS011;38179;52.756;6.906;2024-03-23T09:02:13;12.00;;;7.60;;
52210;SDS011;38179;52.756;6.906;2024-03-23T09:04:39;9.73;;;7.25;;
52210;SDS011;38179;52.756;6.906;2024-03-23T09:07:04;10.70;;;7.22;;
52210;SDS011;38179;52.756;6.906;2024-03-23T09:09:30;14.48;;;8.77;;
52210;SDS011;38179;52.756;6.906;2024-03-23T09:11:56;17.40;;;8.13;;
52210;SDS011;38179;52.756;6.906;2024-03-23T09:14:21;12.45;;;8.07;;
52210;SDS011;38179;52.756;6.906;2024-03-23T09:16:49;10.65;;;7.55;;
52210;SDS011;38179;52.756;6.906;2024-03-23T09:19:16;10.63;;;8.07;;
52210;SDS011;38179;52.756;6.906;2024-03-23T09:21:42;11.70;;;7.85;;
52210;SDS011;38179;52.756;6.906;2024-03-23T09:26:51;12.88;;;8.40;;
52210;SDS011;38179;52.756;6.906;2024-03-23T09:29:17;11.45;;;7.72;;
52210;SDS011;38179;52.756;6.906;2024-03-23T09:31:43;10.10;;;7.50;;
52210;SDS011;38179;52.756;6.906;2024-03-23T09:34:09;10.13;;;7.40;;
52210;SDS011;38179;52.756;6.906;2024-03-23T09:36:34;10.23;;;7.00;;
52210;SDS011;38179;52.756;6.906;2024-03-23T09:39:00;10.40;;;7.07;;
52210;SDS011;38179;52.756;6.906;2024-03-23T09:41:26;9.40;;;7.35;;
52210;SDS011;38179;52.756;6.906;2024-03-23T09:43:54;13.40;;;7.93;;
52210;SDS011;38179;52.756;6.906;2024-03-23T09:46:20;10.43;;;7.47;;
52210;SDS011;38179;52.756;6.906;2024-03-23T09:48:46;11.75;;;7.32;;
52210;SDS011;38179;52.756;6.906;2024-03-23T09:51:12;11.65;;;7.45;;
52210;SDS011;38179;52.756;6.906;2024-03-23T09:53:38;12.48;;;7.43;;
52210;SDS011;38179;52.756;6.906;2024-03-23T09:56:04;11.02;;;7.35;;
52210;SDS011;38179;52.756;6.906;2024-03-23T09:58:30;10.77;;;7.60;;
52210;SDS011;38179;52.756;6.906;2024-03-23T10:00:57;10.73;;;7.28;;
52210;SDS011;38179;52.756;6.906;2024-03-23T10:03:23;11.32;;;7.60;;
52210;SDS011;38179;52.756;6.906;2024-03-23T10:05:59;15.43;;;8.30;;
52210;SDS011;38179;52.756;6.906;2024-03-23T10:08:26;11.68;;;7.93;;
52210;SDS011;38179;52.756;6.906;2024-03-23T10:10:54;13.30;;;7.75;;
52210;SDS011;38179;52.756;6.906;2024-03-23T10:13:26;14.05;;;7.90;;
52210;SDS011;38179;52.756;6.906;2024-03-23T10:15:57;14.35;;;7.50;;
52210;SDS011;38179;52.756;6.906;2024-03-23T10:18:24;15.23;;;8.25;;
52210;SDS011;38179;52.756;6.906;2024-03-23T10:20:52;9.63;;;7.55;;
52210;SDS011;38179;52.756;6.906;2024-03-23T10:23:39;14.80;;;7.78;;
52210;SDS011;38179;52.756;6.906;2024-03-23T10:26:12;14.13;;;7.22;;
52210;SDS011;38179;52.756;6.906;2024-03-23T10:28:52;10.30;;;7.25;;
52210;SDS011;38179;52.756;6.906;2024-03-23T10:31:28;12.93;;;8.15;;
52210;SDS011;38179;52.756;6.906;2024-03-23T10:33:55;10.80;;;7.30;;
52210;SDS011;38179;52.756;6.906;2024-03-23T10:36:21;12.57;;;7.75;;
52210;SDS011;38179;52.756;6.906;2024-03-23T10:38:49;8.23;;;7.15;;
52210;SDS011;38179;52.756;6.906;2024-03-23T10:41:17;8.73;;;6.47;;
52210;SDS011;38179;52.756;6.906;2024-03-23T10:43:43;8.77;;;7.03;;
52210;SDS011;38179;52.756;6.906;2024-03-23T10:46:11;10.25;;;6.93;;
52210;SDS011;38179;52.756;6.906;2024-03-23T10:48:37;10.20;;;7.20;;
52210;SDS011;38179;52.756;6.906;2024-03-23T10:51:03;10.35;;;7.10;;
52210;SDS011;38179;52.756;6.906;2024-03-23T10:53:30;9.40;;;6.85;;
52210;SDS011;38179;52.756;6.906;2024-03-23T10:55:59;10.00;;;7.07;;
52210;SDS011;38179;52.756;6.906;2024-03-23T10:58:38;12.75;;;7.47;;
52210;SDS011;38179;52.756;6.906;2024-03-23T11:01:06;15.05;;;7.72;;
52210;SDS011;38179;52.756;6.906;2024-03-23T11:03:33;11.63;;;7.80;;
52210;SDS011;38179;52.756;6.906;2024-03-23T11:06:01;11.82;;;7.93;;
52210;SDS011;38179;52.756;6.906;2024-03-23T11:08:32;13.30;;;7.57;;
52210;SDS011;38179;52.756;6.906;2024-03-23T11:13:47;14.65;;;8.00;;
52210;SDS011;38179;52.756;6.906;2024-03-23T11:16:14;13.88;;;7.93;;
52210;SDS011;38179;52.756;6.906;2024-03-23T11:18:41;9.90;;;7.13;;
52210;SDS011;38179;52.756;6.906;2024-03-23T11:21:08;16.13;;;8.15;;
52210;SDS011;38179;52.756;6.906;2024-03-23T11:23:34;11.50;;;8.25;;
52210;SDS011;38179;52.756;6.906;2024-03-23T11:26:00;9.23;;;7.75;;
52210;SDS011;38179;52.756;6.906;2024-03-23T11:28:26;22.45;;;8.70;;
52210;SDS011;38179;52.756;6.906;2024-03-23T11:30:52;13.38;;;7.47;;
52210;SDS011;38179;52.756;6.906;2024-03-23T11:33:17;13.52;;;8.68;;
52210;SDS011;38179;52.756;6.906;2024-03-23T11:35:43;13.65;;;8.50;;
52210;SDS011;38179;52.756;6.906;2024-03-23T11:38:13;16.23;;;8.45;;
52210;SDS011;38179;52.756;6.906;2024-03-23T11:40:44;10.80;;;7.80;;
52210;SDS011;38179;52.756;6.906;2024-03-23T11:43:15;10.43;;;8.30;;
52210;SDS011;38179;52.756;6.906;2024-03-23T11:45:45;12.00;;;7.55;;
52210;SDS011;38179;52.756;6.906;2024-03-23T11:48:16;10.82;;;7.60;;
52210;SDS011;38179;52.756;6.906;2024-03-23T11:50:44;12.02;;;8.20;;
52210;SDS011;38179;52.756;6.906;2024-03-23T11:58:22;13.10;;;7.70;;
52210;SDS011;38179;52.756;6.906;2024-03-23T12:00:50;11.93;;;7.47;;
52210;SDS011;38179;52.756;6.906;2024-03-23T12:03:30;11.68;;;7.72;;
52210;SDS011;38179;52.756;6.906;2024-03-23T12:06:01;15.02;;;7.78;;
52210;SDS011;38179;52.756;6.906;2024-03-23T12:11:15;11.13;;;7.65;;
52210;SDS011;38179;52.756;6.906;2024-03-23T12:13:43;11.10;;;7.25;;
52210;SDS011;38179;52.756;6.906;2024-03-23T12:16:15;9.50;;;6.43;;
52210;SDS011;38179;52.756;6.906;2024-03-23T12:18:43;11.38;;;6.70;;
52210;SDS011;38179;52.756;6.906;2024-03-23T12:21:12;10.02;;;7.00;;
52210;SDS011;38179;52.756;6.906;2024-03-23T12:23:39;12.43;;;7.65;;
52210;SDS011;38179;52.756;6.906;2024-03-23T12:26:05;13.10;;;6.95;;
52210;SDS011;38179;52.756;6.906;2024-03-23T12:28:34;12.48;;;7.50;;
52210;SDS011;38179;52.756;6.906;2024-03-23T12:31:00;10.75;;;7.13;;
52210;SDS011;38179;52.756;6.906;2024-03-23T12:33:25;12.98;;;8.10;;
52210;SDS011;38179;52.756;6.906;2024-03-23T12:38:25;14.70;;;7.00;;
52210;SDS011;38179;52.756;6.906;2024-03-23T12:40:51;10.10;;;6.57;;
52210;SDS011;38179;52.756;6.906;2024-03-23T12:43:17;13.15;;;6.93;;
52210;SDS011;38179;52.756;6.906;2024-03-23T12:45:47;10.55;;;7.03;;
52210;SDS011;38179;52.756;6.906;2024-03-23T12:48:13;10.32;;;7.05;;
52210;SDS011;38179;52.756;6.906;2024-03-23T12:50:39;10.35;;;6.90;;
52210;SDS011;38179;52.756;6.906;2024-03-23T12:53:05;9.30;;;6.35;;
52210;SDS011;38179;52.756;6.906;2024-03-23T12:55:31;11.50;;;7.20;;
52210;SDS011;38179;52.756;6.906;2024-03-23T12:57:59;14.70;;;7.30;;
52210;SDS011;38179;52.756;6.906;2024-03-23T13:00:25;9.05;;;6.70;;
52210;SDS011;38179;52.756;6.906;2024-03-23T13:02:51;12.57;;;7.72;;
52210;SDS011;38179;52.756;6.906;2024-03-23T13:05:18;13.27;;;7.35;;
52210;SDS011;38179;52.756;6.906;2024-03-23T13:07:44;9.13;;;6.82;;
52210;SDS011;38179;52.756;6.906;2024-03-23T13:10:09;13.13;;;6.93;;
52210;SDS011;38179;52.756;6.906;2024-03-23T13:12:35;13.15;;;7.10;;
52210;SDS011;38179;52.756;6.906;2024-03-23T13:15:02;10.48;;;6.75;;
52210;SDS011;38179;52.756;6.906;2024-03-23T13:17:29;9.75;;;6.60;;
52210;SDS011;38179;52.756;6.906;2024-03-23T13:19:55;9.73;;;6.50;;
52210;SDS011;38179;52.756;6.906;2024-03-23T13:22:21;10.15;;;6.65;;
52210;SDS011;38179;52.756;6.906;2024-03-23T13:24:48;12.32;;;7.05;;
52210;SDS011;38179;52.756;6.906;2024-03-23T13:27:14;11.98;;;6.72;;
52210;SDS011;38179;52.756;6.906;2024-03-23T13:29:39;9.50;;;7.03;;
52210;SDS011;38179;52.756;6.906;2024-03-23T13:32:05;15.75;;;7.55;;
52210;SDS011;38179;52.756;6.906;2024-03-23T13:34:31;13.68;;;8.02;;
52210;SDS011;38179;52.756;6.906;2024-03-23T13:36:58;11.40;;;7.68;;
52210;SDS011;38179;52.756;6.906;2024-03-23T13:39:24;10.85;;;6.97;;
52210;SDS011;38179;52.756;6.906;2024-03-23T13:41:50;7.85;;;6.63;;
52210;SDS011;38179;52.756;6.906;2024-03-23T13:44:16;7.78;;;6.10;;
52210;SDS011;38179;52.756;6.906;2024-03-23T13:46:42;8.07;;;6.22;;
52210;SDS011;38179;52.756;6.906;2024-03-23T13:52:02;9.07;;;6.60;;
52210;SDS011;38179;52.756;6.906;2024-03-23T13:54:28;12.32;;;7.10;;
52210;SDS011;38179;52.756;6.906;2024-03-23T13:56:55;11.00;;;7.65;;
52210;SDS011;38179;52.756;6.906;2024-03-23T13:59:21;11.23;;;6.53;;
52210;SDS011;38179;52.756;6.906;2024-03-23T14:04:16;19.00;;;6.88;;
52210;SDS011;38179;52.756;6.906;2024-03-23T14:06:42;13.75;;;7.38;;
52210;SDS011;38179;52.756;6.906;2024-03-23T14:09:11;12.23;;;7.60;;
52210;SDS011;38179;52.756;6.906;2024-03-23T14:11:37;13.68;;;7.20;;
52210;SDS011;38179;52.756;6.906;2024-03-23T14:14:03;15.93;;;7.90;;
52210;SDS011;38179;52.756;6.906;2024-03-23T14:16:29;14.18;;;7.55;;
52210;SDS011;38179;52.756;6.906;2024-03-23T14:18:57;11.57;;;7.18;;
52210;SDS011;38179;52.756;6.906;2024-03-23T14:21:23;11.27;;;7.28;;
52210;SDS011;38179;52.756;6.906;2024-03-23T14:26:26;9.13;;;6.70;;
52210;SDS011;38179;52.756;6.906;2024-03-23T14:28:52;10.60;;;6.63;;
52210;SDS011;38179;52.756;6.906;2024-03-23T14:31:17;8.57;;;7.00;;
52210;SDS011;38179;52.756;6.906;2024-03-23T14:33:43;9.82;;;7.18;;
52210;SDS011;38179;52.756;6.906;2024-03-23T14:36:15;13.93;;;7.57;;
52210;SDS011;38179;52.756;6.906;2024-03-23T14:38:42;14.60;;;7.20;;
52210;SDS011;38179;52.756;6.906;2024-03-23T14:41:12;11.07;;;7.65;;
52210;SDS011;38179;52.756;6.906;2024-03-23T14:43:38;12.15;;;7.28;;
52210;SDS011;38179;52.756;6.906;2024-03-23T14:48:35;10.57;;;7.28;;
52210;SDS011;38179;52.756;6.906;2024-03-23T14:51:01;13.15;;;7.35;;
52210;SDS011;38179;52.756;6.906;2024-03-23T14:53:34;13.40;;;7.70;;
52210;SDS011;38179;52.756;6.906;2024-03-23T14:56:02;12.77;;;7.32;;
52210;SDS011;38179;52.756;6.906;2024-03-23T14:58:29;13.32;;;7.22;;
52210;SDS011;38179;52.756;6.906;2024-03-23T15:01:02;12.25;;;7.20;;
52210;SDS011;38179;52.756;6.906;2024-03-23T15:03:28;11.18;;;6.97;;
52210;SDS011;38179;52.756;6.906;2024-03-23T15:05:57;11.00;;;7.28;;
52210;SDS011;38179;52.756;6.906;2024-03-23T15:08:27;12.73;;;7.28;;
52210;SDS011;38179;52.756;6.906;2024-03-23T15:10:54;10.57;;;6.97;;
52210;SDS011;38179;52.756;6.906;2024-03-23T15:13:20;10.23;;;7.00;;
52210;SDS011;38179;52.756;6.906;2024-03-23T15:15:47;12.55;;;7.50;;
52210;SDS011;38179;52.756;6.906;2024-03-23T15:18:16;13.60;;;7.45;;
52210;SDS011;38179;52.756;6.906;2024-03-23T15:20:56;13.48;;;8.35;;
52210;SDS011;38179;52.756;6.906;2024-03-23T15:23:27;10.95;;;7.72;;
52210;SDS011;38179;52.756;6.906;2024-03-23T15:26:00;11.95;;;7.60;;
52210;SDS011;38179;52.756;6.906;2024-03-23T15:28:27;11.98;;;7.20;;
52210;SDS011;38179;52.756;6.906;2024-03-23T15:31:12;11.82;;;7.88;;
52210;SDS011;38179;52.756;6.906;2024-03-23T15:33:37;11.63;;;7.93;;
52210;SDS011;38179;52.756;6.906;2024-03-23T15:36:05;11.73;;;7.70;;
52210;SDS011;38179;52.756;6.906;2024-03-23T15:38:31;13.27;;;7.57;;
52210;SDS011;38179;52.756;6.906;2024-03-23T15:40:57;13.18;;;7.78;;
52210;SDS011;38179;52.756;6.906;2024-03-23T15:43:23;15.18;;;8.35;;
52210;SDS011;38179;52.756;6.906;2024-03-23T15:46:02;12.48;;;7.97;;
52210;SDS011;38179;52.756;6.906;2024-03-23T15:48:31;12.93;;;7.28;;
52210;SDS011;38179;52.756;6.906;2024-03-23T15:51:00;13.27;;;7.37;;
52210;SDS011;38179;52.756;6.906;2024-03-23T15:53:29;11.70;;;7.28;;
52210;SDS011;38179;52.756;6.906;2024-03-23T15:55:56;17.10;;;7.68;;
52210;SDS011;38179;52.756;6.906;2024-03-23T15:58:23;11.35;;;7.95;;
52210;SDS011;38179;52.756;6.906;2024-03-23T16:00:57;12.57;;;8.32;;
52210;SDS011;38179;52.756;6.906;2024-03-23T16:03:23;13.43;;;7.45;;
52210;SDS011;38179;52.756;6.906;2024-03-23T16:05:59;9.43;;;7.10;;
52210;SDS011;38179;52.756;6.906;2024-03-23T16:08:26;8.50;;;6.60;;
52210;SDS011;38179;52.756;6.906;2024-03-23T16:10:59;11.32;;;7.13;;
52210;SDS011;38179;52.756;6.906;2024-03-23T16:13:29;10.85;;;7.13;;
52210;SDS011;38179;52.756;6.906;2024-03-23T16:15:58;10.85;;;7.00;;
52210;SDS011;38179;52.756;6.906;2024-03-23T16:18:25;13.20;;;6.65;;
52210;SDS011;38179;52.756;6.906;2024-03-23T16:20:55;9.63;;;7.22;;
52210;SDS011;38179;52.756;6.906;2024-03-23T16:23:22;9.90;;;6.82;;
52210;SDS011;38179;52.756;6.906;2024-03-23T16:26:05;15.60;;;7.35;;
52210;SDS011;38179;52.756;6.906;2024-03-23T16:28:35;14.25;;;7.55;;
52210;SDS011;38179;52.756;6.906;2024-03-23T16:31:01;8.57;;;6.68;;
52210;SDS011;38179;52.756;6.906;2024-03-23T16:33:29;11.52;;;7.10;;
52210;SDS011;38179;52.756;6.906;2024-03-23T16:36:07;12.80;;;7.47;;
52210;SDS011;38179;52.756;6.906;2024-03-23T16:38:35;13.65;;;7.55;;
52210;SDS011;38179;52.756;6.906;2024-03-23T16:43:27;9.15;;;7.13;;
52210;SDS011;38179;52.756;6.906;2024-03-23T16:46:03;9.45;;;7.25;;
52210;SDS011;38179;52.756;6.906;2024-03-23T16:48:37;9.27;;;7.03;;
52210;SDS011;38179;52.756;6.906;2024-03-23T16:51:06;11.35;;;6.88;;
52210;SDS011;38179;52.756;6.906;2024-03-23T16:53:33;9.88;;;7.35;;
52210;SDS011;38179;52.756;6.906;2024-03-23T16:58:26;11.13;;;6.93;;
52210;SDS011;38179;52.756;6.906;2024-03-23T17:00:55;8.82;;;6.25;;
52210;SDS011;38179;52.756;6.906;2024-03-23T17:03:25;11.82;;;6.65;;
52210;SDS011;38179;52.756;6.906;2024-03-23T17:05:51;9.73;;;7.00;;
52210;SDS011;38179;52.756;6.906;2024-03-23T17:08:19;11.38;;;6.70;;
52210;SDS011;38179;52.756;6.906;2024-03-23T17:10:46;11.57;;;6.60;;
52210;SDS011;38179;52.756;6.906;2024-03-23T17:13:12;8.90;;;6.82;;
52210;SDS011;38179;52.756;6.906;2024-03-23T17:15:44;9.20;;;6.43;;
52210;SDS011;38179;52.756;6.906;2024-03-23T17:18:10;10.90;;;7.20;;
52210;SDS011;38179;52.756;6.906;2024-03-23T17:20:36;8.60;;;6.60;;
52210;SDS011;38179;52.756;6.906;2024-03-23T17:23:02;9.18;;;7.20;;
52210;SDS011;38179;52.756;6.906;2024-03-23T17:25:28;9.10;;;6.63;;
52210;SDS011;38179;52.756;6.906;2024-03-23T17:27:54;9.20;;;6.90;;
52210;SDS011;38179;52.756;6.906;2024-03-23T17:30:20;8.75;;;7.07;;
52210;SDS011;38179;52.756;6.906;2024-03-23T17:32:46;13.38;;;7.20;;
52210;SDS011;38179;52.756;6.906;2024-03-23T17:35:12;9.95;;;6.93;;
52210;SDS011;38179;52.756;6.906;2024-03-23T17:37:38;12.70;;;7.07;;
52210;SDS011;38179;52.756;6.906;2024-03-23T17:40:05;12.48;;;7.05;;
52210;SDS011;38179;52.756;6.906;2024-03-23T17:45:00;9.27;;;6.60;;
52210;SDS011;38179;52.756;6.906;2024-03-23T17:47:26;9.48;;;6.53;;
52210;SDS011;38179;52.756;6.906;2024-03-23T17:49:52;12.20;;;6.95;;
52210;SDS011;38179;52.756;6.906;2024-03-23T17:52:18;8.93;;;6.78;;
52210;SDS011;38179;52.756;6.906;2024-03-23T17:54:44;12.30;;;7.40;;